createdAt,value
2018-09-25T00:00:19.735Z,75.60
2018-09-25T00:00:50.799Z,75.60
2018-09-25T00:01:21.839Z,75.60
2018-09-25T00:01:52.891Z,75.60
2018-09-25T00:02:23.943Z,75.60
2018-09-25T00:02:54.987Z,75.50
2018-09-25T00:03:26.035Z,75.30
2018-09-25T00:03:57.076Z,75.30
2018-09-25T00:04:28.131Z,75.40
2018-09-25T00:04:59.180Z,75.30
2018-09-25T00:05:30.222Z,75.40
2018-09-25T00:06:01.285Z,75.30
2018-09-25T00:06:40.419Z,75.30
2018-09-25T00:07:12.513Z,75.30
2018-09-25T00:07:43.564Z,75.30
2018-09-25T00:08:14.612Z,75.40
2018-09-25T00:08:45.668Z,75.70
2018-09-25T00:09:16.719Z,75.30
2018-09-25T00:09:47.775Z,75.30
2018-09-25T00:10:18.876Z,75.30
2018-09-25T00:10:49.873Z,75.30
2018-09-25T00:11:20.935Z,75.20
2018-09-25T00:11:51.994Z,75.20
2018-09-25T00:12:23.032Z,75.20
2018-09-25T00:12:54.084Z,75.20
2018-09-25T00:13:25.228Z,75.20
2018-09-25T00:13:56.279Z,75.20
2018-09-25T00:14:27.350Z,75.20
2018-09-25T00:14:58.388Z,75.20
2018-09-25T00:15:29.436Z,75.20
2018-09-25T00:16:00.499Z,75.20
2018-09-25T00:16:31.543Z,75.20
2018-09-25T00:17:02.593Z,75.20
2018-09-25T00:17:33.642Z,75.50
2018-09-25T00:18:04.700Z,75.20
2018-09-25T00:18:35.748Z,75.20
2018-09-25T00:19:06.795Z,75.30
2018-09-25T00:19:37.847Z,75.30
2018-09-25T00:20:08.895Z,75.30
2018-09-25T00:20:39.950Z,75.20
2018-09-25T00:21:10.991Z,75.20
2018-09-25T00:21:42.061Z,75.30
2018-09-25T00:22:13.098Z,75.30
2018-09-25T00:22:44.147Z,75.20
2018-09-25T00:23:15.260Z,75.30
2018-09-25T00:23:46.307Z,75.30
2018-09-25T00:24:17.352Z,75.20
2018-09-25T00:24:48.400Z,75.20
2018-09-25T00:25:19.442Z,75.30
2018-09-25T00:25:50.490Z,75.40
2018-09-25T00:26:21.539Z,75.30
2018-09-25T00:26:52.596Z,75.30
2018-09-25T00:27:23.653Z,75.30
2018-09-25T00:27:54.703Z,75.30
2018-09-25T00:28:25.744Z,75.30
2018-09-25T00:28:56.791Z,75.30
2018-09-25T00:29:27.835Z,75.30
2018-09-25T00:29:58.896Z,75.30
2018-09-25T00:30:29.938Z,75.20
2018-09-25T00:31:00.989Z,75.30
2018-09-25T00:31:32.048Z,75.30
2018-09-25T00:32:03.101Z,75.30
2018-09-25T00:32:34.163Z,75.30
2018-09-25T00:33:05.242Z,75.30
2018-09-25T00:33:36.287Z,75.30
2018-09-25T00:34:07.336Z,75.20
2018-09-25T00:34:38.392Z,75.20
2018-09-25T00:35:09.439Z,75.20
2018-09-25T00:35:40.492Z,75.20
2018-09-25T00:36:11.540Z,75.20
2018-09-25T00:36:42.603Z,75.20
2018-09-25T00:37:13.699Z,75.10
2018-09-25T00:37:44.735Z,75.10
2018-09-25T00:38:15.783Z,75.10
2018-09-25T00:38:46.839Z,75.10
2018-09-25T00:39:17.883Z,75.20
2018-09-25T00:39:49.335Z,75.20
2018-09-25T00:40:20.360Z,75.20
2018-09-25T00:40:51.415Z,75.90
2018-09-25T00:41:22.455Z,75.20
2018-09-25T00:41:53.596Z,75.20
2018-09-25T00:42:24.644Z,75.20
2018-09-25T00:42:55.712Z,75.20
2018-09-25T00:43:26.765Z,75.10
2018-09-25T00:43:57.816Z,75.10
2018-09-25T00:44:28.864Z,75.00
2018-09-25T00:44:59.917Z,75.00
2018-09-25T00:45:30.999Z,75.00
2018-09-25T00:46:02.046Z,75.10
2018-09-25T00:46:33.092Z,75.10
2018-09-25T00:47:04.203Z,75.20
2018-09-25T00:47:35.198Z,75.20
2018-09-25T00:48:06.259Z,75.10
2018-09-25T00:48:37.305Z,75.20
2018-09-25T00:49:08.352Z,75.20
2018-09-25T00:49:39.394Z,75.20
2018-09-25T00:50:10.449Z,75.00
2018-09-25T00:50:41.500Z,75.10
2018-09-25T00:51:12.546Z,75.00
2018-09-25T00:51:43.599Z,75.00
2018-09-25T00:52:14.660Z,75.00
2018-09-25T00:52:45.712Z,75.00
2018-09-25T00:53:16.754Z,75.10
2018-09-25T00:53:47.815Z,75.10
2018-09-25T00:54:18.861Z,75.10
2018-09-25T00:54:49.911Z,75.00
2018-09-25T00:55:20.959Z,75.20
2018-09-25T00:55:52.000Z,75.20
2018-09-25T00:56:23.047Z,75.90
2018-09-25T00:56:54.112Z,75.10
2018-09-25T00:57:25.179Z,75.00
2018-09-25T00:57:56.232Z,75.00
2018-09-25T00:58:27.269Z,75.00
2018-09-25T00:58:58.325Z,75.00
2018-09-25T00:59:29.371Z,74.90
2018-09-25T01:00:00.424Z,75.00
2018-09-25T01:00:31.471Z,75.10
2018-09-25T01:01:02.523Z,75.20
2018-09-25T01:01:33.571Z,75.00
2018-09-25T01:02:04.629Z,75.00
2018-09-25T01:02:35.684Z,75.00
2018-09-25T01:03:06.736Z,75.10
2018-09-25T01:03:37.783Z,75.00
2018-09-25T01:04:08.963Z,75.00
2018-09-25T01:04:40.000Z,75.00
2018-09-25T01:05:11.052Z,75.20
2018-09-25T01:05:42.410Z,74.90
2018-09-25T01:06:13.463Z,75.00
2018-09-25T01:06:44.515Z,74.90
2018-09-25T01:07:15.559Z,75.00
2018-09-25T01:07:46.624Z,74.90
2018-09-25T01:08:17.678Z,74.90
2018-09-25T01:08:48.723Z,74.90
2018-09-25T01:09:19.795Z,74.90
2018-09-25T01:09:50.835Z,74.90
2018-09-25T01:10:21.892Z,74.90
2018-09-25T01:10:52.940Z,74.90
2018-09-25T01:11:23.987Z,74.90
2018-09-25T01:11:55.044Z,74.90
2018-09-25T01:12:26.095Z,74.90
2018-09-25T01:12:57.149Z,74.90
2018-09-25T01:13:28.199Z,74.80
2018-09-25T01:13:59.254Z,74.80
2018-09-25T01:14:30.308Z,74.70
2018-09-25T01:15:01.352Z,74.60
2018-09-25T01:15:32.413Z,74.70
2018-09-25T01:16:03.456Z,74.50
2018-09-25T01:16:34.511Z,74.40
2018-09-25T01:17:05.550Z,74.30
2018-09-25T01:17:36.607Z,74.20
2018-09-25T01:18:07.663Z,74.30
2018-09-25T01:18:38.711Z,74.30
2018-09-25T01:19:09.798Z,74.30
2018-09-25T01:19:40.815Z,74.30
2018-09-25T01:20:11.859Z,74.20
2018-09-25T01:20:42.911Z,74.30
2018-09-25T01:21:13.964Z,74.40
2018-09-25T01:21:45.003Z,74.40
2018-09-25T01:22:16.064Z,74.50
2018-09-25T01:22:47.118Z,74.60
2018-09-25T01:23:18.249Z,74.50
2018-09-25T01:23:49.291Z,74.50
2018-09-25T01:24:20.348Z,74.60
2018-09-25T01:24:51.401Z,74.60
2018-09-25T01:25:22.443Z,74.60
2018-09-25T01:25:53.500Z,74.60
2018-09-25T01:26:24.647Z,74.50
2018-09-25T01:26:55.696Z,74.60
2018-09-25T01:27:26.747Z,74.50
2018-09-25T01:27:57.795Z,74.50
2018-09-25T01:28:28.856Z,74.50
2018-09-25T01:28:59.908Z,74.50
2018-09-25T01:29:30.947Z,74.50
2018-09-25T01:30:02.000Z,74.60
2018-09-25T01:30:33.068Z,74.50
2018-09-25T01:31:04.160Z,74.50
2018-09-25T01:31:35.203Z,74.60
2018-09-25T01:32:06.257Z,74.60
2018-09-25T01:32:37.303Z,74.70
2018-09-25T01:33:08.359Z,74.60
2018-09-25T01:33:39.415Z,74.70
2018-09-25T01:34:10.474Z,74.70
2018-09-25T01:34:41.519Z,74.70
2018-09-25T01:35:12.564Z,74.70
2018-09-25T01:35:43.616Z,74.70
2018-09-25T01:36:14.669Z,74.60
2018-09-25T01:36:45.715Z,74.60
2018-09-25T01:37:16.763Z,74.60
2018-09-25T01:37:47.811Z,74.50
2018-09-25T01:38:18.872Z,74.60
2018-09-25T01:38:49.920Z,74.50
2018-09-25T01:39:20.955Z,74.50
2018-09-25T01:39:52.003Z,74.50
2018-09-25T01:40:23.056Z,74.90
2018-09-25T01:40:54.100Z,74.40
2018-09-25T01:41:25.159Z,74.40
2018-09-25T01:41:56.338Z,74.50
2018-09-25T01:42:27.390Z,74.40
2018-09-25T01:42:58.438Z,74.30
2018-09-25T01:43:29.504Z,74.30
2018-09-25T01:44:00.556Z,74.30
2018-09-25T01:44:31.603Z,74.40
2018-09-25T01:45:02.647Z,74.40
2018-09-25T01:45:33.686Z,74.40
2018-09-25T01:46:04.738Z,74.50
2018-09-25T01:46:35.787Z,74.30
2018-09-25T01:47:06.840Z,74.30
2018-09-25T01:47:37.892Z,74.20
2018-09-25T01:48:08.944Z,74.30
2018-09-25T01:48:39.990Z,74.30
2018-09-25T01:49:11.051Z,74.90
2018-09-25T01:49:42.093Z,74.40
2018-09-25T01:50:13.143Z,74.50
2018-09-25T01:50:44.187Z,74.40
2018-09-25T01:51:15.235Z,74.30
2018-09-25T01:51:46.283Z,74.30
2018-09-25T01:52:17.337Z,74.30
2018-09-25T01:52:48.380Z,74.20
2018-09-25T01:53:19.423Z,74.20
2018-09-25T01:53:50.492Z,74.20
2018-09-25T01:54:21.540Z,74.30
2018-09-25T01:54:52.596Z,74.20
2018-09-25T01:55:23.639Z,74.20
2018-09-25T01:55:54.688Z,74.20
2018-09-25T01:56:25.736Z,74.30
2018-09-25T01:56:56.780Z,74.20
2018-09-25T01:57:27.835Z,74.30
2018-09-25T01:57:58.887Z,74.30
2018-09-25T01:58:29.930Z,74.30
2018-09-25T01:59:01.083Z,74.30
2018-09-25T01:59:32.129Z,74.30
2018-09-25T02:00:03.177Z,74.20
2018-09-25T02:00:34.219Z,74.20
2018-09-25T02:01:05.271Z,74.20
2018-09-25T02:01:36.316Z,74.20
2018-09-25T02:02:07.463Z,74.20
2018-09-25T02:02:38.515Z,74.20
2018-09-25T02:03:09.563Z,74.20
2018-09-25T02:03:40.606Z,74.20
2018-09-25T02:04:11.667Z,74.30
2018-09-25T02:04:42.723Z,74.30
2018-09-25T02:05:13.766Z,75.00
2018-09-25T02:05:44.865Z,74.20
2018-09-25T02:06:15.855Z,75.10
2018-09-25T02:06:46.904Z,75.00
2018-09-25T02:07:17.951Z,74.30
2018-09-25T02:07:48.999Z,74.30
2018-09-25T02:08:20.040Z,74.30
2018-09-25T02:08:51.090Z,74.30
2018-09-25T02:09:22.146Z,74.30
2018-09-25T02:09:53.191Z,74.30
2018-09-25T02:10:24.252Z,74.30
2018-09-25T02:10:55.308Z,74.30
2018-09-25T02:11:26.355Z,75.00
2018-09-25T02:11:57.407Z,74.20
2018-09-25T02:12:28.447Z,74.30
2018-09-25T02:12:59.498Z,74.30
2018-09-25T02:13:30.543Z,74.20
2018-09-25T02:14:01.593Z,74.30
2018-09-25T02:14:32.655Z,74.30
2018-09-25T02:15:03.705Z,74.30
2018-09-25T02:15:34.762Z,74.30
2018-09-25T02:16:05.831Z,74.50
2018-09-25T02:16:36.876Z,74.30
2018-09-25T02:17:07.924Z,74.20
2018-09-25T02:17:38.979Z,74.30
2018-09-25T02:18:10.035Z,74.30
2018-09-25T02:18:41.080Z,74.30
2018-09-25T02:19:12.128Z,74.30
2018-09-25T02:19:43.181Z,74.20
2018-09-25T02:20:14.232Z,74.90
2018-09-25T02:20:45.299Z,74.20
2018-09-25T02:21:16.343Z,74.10
2018-09-25T02:21:47.384Z,74.20
2018-09-25T02:22:18.436Z,74.30
2018-09-25T02:22:49.476Z,74.10
2018-09-25T02:23:20.537Z,74.10
2018-09-25T02:23:51.584Z,74.10
2018-09-25T02:24:22.640Z,74.10
2018-09-25T02:24:53.691Z,74.10
2018-09-25T02:25:24.730Z,74.10
2018-09-25T02:25:55.902Z,74.10
2018-09-25T02:26:26.951Z,74.10
2018-09-25T02:26:58.023Z,74.20
2018-09-25T02:27:29.075Z,74.10
2018-09-25T02:28:00.119Z,74.10
2018-09-25T02:28:31.166Z,73.80
2018-09-25T02:29:02.212Z,74.10
2018-09-25T02:29:33.258Z,74.10
2018-09-25T02:30:04.319Z,74.10
2018-09-25T02:30:35.371Z,74.10
2018-09-25T02:31:06.419Z,74.90
2018-09-25T02:31:37.556Z,74.10
2018-09-25T02:32:08.604Z,74.10
2018-09-25T02:32:39.652Z,74.10
2018-09-25T02:33:10.696Z,74.10
2018-09-25T02:33:41.751Z,74.10
2018-09-25T02:34:12.817Z,74.20
2018-09-25T02:34:43.872Z,74.10
2018-09-25T02:35:14.916Z,74.10
2018-09-25T02:35:45.964Z,74.40
2018-09-25T02:36:17.028Z,74.10
2018-09-25T02:36:48.134Z,74.00
2018-09-25T02:37:19.179Z,74.10
2018-09-25T02:37:50.236Z,74.10
2018-09-25T02:38:21.275Z,74.00
2018-09-25T02:38:52.335Z,74.00
2018-09-25T02:39:23.375Z,74.00
2018-09-25T02:39:54.433Z,74.00
2018-09-25T02:40:25.479Z,74.00
2018-09-25T02:40:56.524Z,74.00
2018-09-25T02:41:27.575Z,74.10
2018-09-25T02:41:58.624Z,74.10
2018-09-25T02:42:29.679Z,74.10
2018-09-25T02:43:00.729Z,74.10
2018-09-25T02:43:31.770Z,74.10
2018-09-25T02:44:02.834Z,74.10
2018-09-25T02:44:33.879Z,74.10
2018-09-25T02:45:04.934Z,74.10
2018-09-25T02:45:35.983Z,74.10
2018-09-25T02:46:07.028Z,74.10
2018-09-25T02:46:38.079Z,74.20
2018-09-25T02:47:09.119Z,74.20
2018-09-25T02:47:40.162Z,74.20
2018-09-25T02:48:11.215Z,74.20
2018-09-25T02:48:42.262Z,74.20
2018-09-25T02:49:13.312Z,74.20
2018-09-25T02:49:44.359Z,74.20
2018-09-25T02:50:15.411Z,74.20
2018-09-25T02:50:46.455Z,74.20
2018-09-25T02:51:17.512Z,74.20
2018-09-25T02:51:48.560Z,74.20
2018-09-25T02:52:19.604Z,74.20
2018-09-25T02:52:50.655Z,74.20
2018-09-25T02:53:21.698Z,74.20
2018-09-25T02:53:52.759Z,74.90
2018-09-25T02:54:23.806Z,74.10
2018-09-25T02:54:54.863Z,74.10
2018-09-25T02:55:25.910Z,74.10
2018-09-25T02:55:56.959Z,74.10
2018-09-25T02:56:28.012Z,74.10
2018-09-25T02:56:59.053Z,74.10
2018-09-25T02:57:30.107Z,74.10
2018-09-25T02:58:01.148Z,74.20
2018-09-25T02:58:32.191Z,74.20
2018-09-25T02:59:03.251Z,74.10
2018-09-25T02:59:34.300Z,74.10
2018-09-25T03:00:05.362Z,74.10
2018-09-25T03:00:36.399Z,74.10
2018-09-25T03:01:07.451Z,74.10
2018-09-25T03:01:38.496Z,74.80
2018-09-25T03:02:09.550Z,74.10
2018-09-25T03:02:40.596Z,74.80
2018-09-25T03:03:11.647Z,74.10
2018-09-25T03:03:42.695Z,74.10
2018-09-25T03:04:13.740Z,74.00
2018-09-25T03:04:44.790Z,74.00
2018-09-25T03:05:15.860Z,74.10
2018-09-25T03:05:46.903Z,74.10
2018-09-25T03:06:17.964Z,74.10
2018-09-25T03:06:49.010Z,74.10
2018-09-25T03:07:20.067Z,74.10
2018-09-25T03:07:51.120Z,74.70
2018-09-25T03:08:22.172Z,74.10
2018-09-25T03:08:53.230Z,74.00
2018-09-25T03:09:24.279Z,74.00
2018-09-25T03:09:55.351Z,74.10
2018-09-25T03:10:26.547Z,74.00
2018-09-25T03:10:57.590Z,74.00
2018-09-25T03:11:28.644Z,74.00
2018-09-25T03:11:59.686Z,74.00
2018-09-25T03:12:30.731Z,74.00
2018-09-25T03:13:01.779Z,74.00
2018-09-25T03:13:32.831Z,74.00
2018-09-25T03:14:03.878Z,74.00
2018-09-25T03:14:34.938Z,74.00
2018-09-25T03:15:05.980Z,74.00
2018-09-25T03:15:37.034Z,74.00
2018-09-25T03:16:08.080Z,74.00
2018-09-25T03:16:39.142Z,74.00
2018-09-25T03:17:10.171Z,73.90
2018-09-25T03:17:41.231Z,73.90
2018-09-25T03:18:12.279Z,74.00
2018-09-25T03:18:43.323Z,74.00
2018-09-25T03:19:14.415Z,74.00
2018-09-25T03:19:45.419Z,74.00
2018-09-25T03:20:16.487Z,74.00
2018-09-25T03:20:47.535Z,74.00
2018-09-25T03:21:18.579Z,74.00
2018-09-25T03:21:49.637Z,74.00
2018-09-25T03:22:20.708Z,74.00
2018-09-25T03:22:51.748Z,74.00
2018-09-25T03:23:22.797Z,74.00
2018-09-25T03:23:53.900Z,74.00
2018-09-25T03:24:24.896Z,74.00
2018-09-25T03:24:55.943Z,74.00
2018-09-25T03:25:27.000Z,74.00
2018-09-25T03:25:58.035Z,74.00
2018-09-25T03:26:29.086Z,74.00
2018-09-25T03:27:00.135Z,74.10
2018-09-25T03:27:31.180Z,74.10
2018-09-25T03:28:02.246Z,74.10
2018-09-25T03:28:33.287Z,74.10
2018-09-25T03:29:04.332Z,74.10
2018-09-25T03:29:35.381Z,74.60
2018-09-25T03:30:06.433Z,74.00
2018-09-25T03:30:37.496Z,73.90
2018-09-25T03:31:08.568Z,74.00
2018-09-25T03:31:39.619Z,74.00
2018-09-25T03:32:10.679Z,74.00
2018-09-25T03:32:41.720Z,73.90
2018-09-25T03:33:12.770Z,73.90
2018-09-25T03:33:43.819Z,74.00
2018-09-25T03:34:14.860Z,73.90
2018-09-25T03:34:45.937Z,73.90
2018-09-25T03:35:16.985Z,73.90
2018-09-25T03:35:48.045Z,73.90
2018-09-25T03:36:19.091Z,73.90
2018-09-25T03:36:50.134Z,73.80
2018-09-25T03:37:21.181Z,73.80
2018-09-25T03:37:52.227Z,73.80
2018-09-25T03:38:23.279Z,73.80
2018-09-25T03:38:54.315Z,73.80
2018-09-25T03:39:25.371Z,73.80
2018-09-25T03:39:56.427Z,73.80
2018-09-25T03:40:27.471Z,73.80
2018-09-25T03:40:58.532Z,73.80
2018-09-25T03:41:29.596Z,73.70
2018-09-25T03:42:00.651Z,73.80
2018-09-25T03:42:31.703Z,74.20
2018-09-25T03:43:02.751Z,73.80
2018-09-25T03:43:33.826Z,73.70
2018-09-25T03:44:04.902Z,73.70
2018-09-25T03:44:35.940Z,73.70
2018-09-25T03:45:06.984Z,73.70
2018-09-25T03:45:38.035Z,73.70
2018-09-25T03:46:09.091Z,73.80
2018-09-25T03:46:40.134Z,73.70
2018-09-25T03:47:11.187Z,73.70
2018-09-25T03:47:42.231Z,73.70
2018-09-25T03:48:13.284Z,73.70
2018-09-25T03:48:44.335Z,73.70
2018-09-25T03:49:15.384Z,73.70
2018-09-25T03:49:46.436Z,73.60
2018-09-25T03:50:17.491Z,73.50
2018-09-25T03:50:48.539Z,73.50
2018-09-25T03:51:19.595Z,73.60
2018-09-25T03:51:50.645Z,73.50
2018-09-25T03:52:21.700Z,73.50
2018-09-25T03:52:52.747Z,73.50
2018-09-25T03:53:23.791Z,73.50
2018-09-25T03:53:54.843Z,74.30
2018-09-25T03:54:25.886Z,73.50
2018-09-25T03:54:56.931Z,73.50
2018-09-25T03:55:27.979Z,73.50
2018-09-25T03:55:59.093Z,73.50
2018-09-25T03:56:30.127Z,73.40
2018-09-25T03:57:01.183Z,74.10
2018-09-25T03:57:32.264Z,73.10
2018-09-25T03:58:03.311Z,72.90
2018-09-25T03:58:34.362Z,72.80
2018-09-25T03:59:05.407Z,72.70
2018-09-25T03:59:36.485Z,72.80
2018-09-25T04:00:07.503Z,72.90
2018-09-25T04:00:38.555Z,73.00
2018-09-25T04:01:09.671Z,72.80
2018-09-25T04:01:40.711Z,73.00
2018-09-25T04:02:11.751Z,73.00
2018-09-25T04:02:42.807Z,72.90
2018-09-25T04:03:13.860Z,73.00
2018-09-25T04:03:44.907Z,72.80
2018-09-25T04:04:15.956Z,72.60
2018-09-25T04:04:47.011Z,72.50
2018-09-25T04:05:18.068Z,72.50
2018-09-25T04:05:49.116Z,72.50
2018-09-25T04:06:20.227Z,72.40
2018-09-25T04:06:51.228Z,72.70
2018-09-25T04:07:22.287Z,72.40
2018-09-25T04:07:53.331Z,72.40
2018-09-25T04:08:24.451Z,72.40
2018-09-25T04:08:55.499Z,72.40
2018-09-25T04:09:26.560Z,72.40
2018-09-25T04:09:57.616Z,72.30
2018-09-25T04:10:28.656Z,72.40
2018-09-25T04:10:59.715Z,72.20
2018-09-25T04:11:30.888Z,72.20
2018-09-25T04:12:01.938Z,72.20
2018-09-25T04:12:32.979Z,72.20
2018-09-25T04:13:04.031Z,72.20
2018-09-25T04:13:35.083Z,72.20
2018-09-25T04:14:06.131Z,72.20
2018-09-25T04:14:37.179Z,72.20
2018-09-25T04:15:08.242Z,72.20
2018-09-25T04:15:39.294Z,72.20
2018-09-25T04:16:10.335Z,72.20
2018-09-25T04:16:41.387Z,72.20
2018-09-25T04:17:12.431Z,72.10
2018-09-25T04:17:43.477Z,72.20
2018-09-25T04:18:14.523Z,72.50
2018-09-25T04:18:45.568Z,72.20
2018-09-25T04:19:16.607Z,72.10
2018-09-25T04:19:47.650Z,72.10
2018-09-25T04:20:18.698Z,72.10
2018-09-25T04:20:49.748Z,72.10
2018-09-25T04:21:20.786Z,72.10
2018-09-25T04:21:51.831Z,72.10
2018-09-25T04:22:22.876Z,72.00
2018-09-25T04:22:53.975Z,72.00
2018-09-25T04:23:25.029Z,72.00
2018-09-25T04:23:56.083Z,72.10
2018-09-25T04:24:27.188Z,72.10
2018-09-25T04:24:58.223Z,72.10
2018-09-25T04:25:29.276Z,72.10
2018-09-25T04:26:00.337Z,72.10
2018-09-25T04:26:31.379Z,72.10
2018-09-25T04:27:02.435Z,72.00
2018-09-25T04:27:33.484Z,72.10
2018-09-25T04:28:04.526Z,72.20
2018-09-25T04:28:35.688Z,72.10
2018-09-25T04:29:06.622Z,72.10
2018-09-25T04:29:37.680Z,72.10
2018-09-25T04:30:08.714Z,72.10
2018-09-25T04:30:39.754Z,72.20
2018-09-25T04:31:10.800Z,72.20
2018-09-25T04:31:41.842Z,72.10
2018-09-25T04:32:12.903Z,72.20
2018-09-25T04:32:43.944Z,72.20
2018-09-25T04:33:14.995Z,72.20
2018-09-25T04:33:46.039Z,72.10
2018-09-25T04:34:17.091Z,72.10
2018-09-25T04:34:48.143Z,72.10
2018-09-25T04:35:19.191Z,72.20
2018-09-25T04:35:50.234Z,72.10
2018-09-25T04:36:21.292Z,72.10
2018-09-25T04:36:52.333Z,72.10
2018-09-25T04:37:23.380Z,72.20
2018-09-25T04:37:54.429Z,72.20
2018-09-25T04:38:25.467Z,72.20
2018-09-25T04:38:56.529Z,72.20
2018-09-25T04:39:27.561Z,72.20
2018-09-25T04:39:58.601Z,72.10
2018-09-25T04:40:29.643Z,72.20
2018-09-25T04:41:00.695Z,72.20
2018-09-25T04:41:31.743Z,72.20
2018-09-25T04:42:02.783Z,72.20
2018-09-25T04:42:33.844Z,72.20
2018-09-25T04:43:04.894Z,72.20
2018-09-25T04:43:35.943Z,72.10
2018-09-25T04:44:06.994Z,72.10
2018-09-25T04:44:38.046Z,72.50
2018-09-25T04:45:09.084Z,72.00
2018-09-25T04:45:40.126Z,72.00
2018-09-25T04:46:11.175Z,72.00
2018-09-25T04:46:42.223Z,72.10
2018-09-25T04:47:13.282Z,72.10
2018-09-25T04:47:44.341Z,72.10
2018-09-25T04:48:15.371Z,72.10
2018-09-25T04:48:46.418Z,72.10
2018-09-25T04:49:17.463Z,72.20
2018-09-25T04:49:48.513Z,72.10
2018-09-25T04:50:19.558Z,72.10
2018-09-25T04:50:50.602Z,72.20
2018-09-25T04:51:21.652Z,72.20
2018-09-25T04:51:52.691Z,72.10
2018-09-25T04:52:23.761Z,72.20
2018-09-25T04:52:54.804Z,72.10
2018-09-25T04:53:25.952Z,72.10
2018-09-25T04:53:56.996Z,72.20
2018-09-25T04:54:28.035Z,72.20
2018-09-25T04:54:59.083Z,72.20
2018-09-25T04:55:30.126Z,72.20
2018-09-25T04:56:01.171Z,72.20
2018-09-25T04:56:32.219Z,72.20
2018-09-25T04:57:03.297Z,72.20
2018-09-25T04:57:34.318Z,72.10
2018-09-25T04:58:05.359Z,72.10
2018-09-25T04:58:36.403Z,72.10
2018-09-25T04:59:07.446Z,72.20
2018-09-25T04:59:38.492Z,72.10
2018-09-25T05:00:09.535Z,72.20
2018-09-25T05:00:40.579Z,72.20
2018-09-25T05:01:11.623Z,72.10
2018-09-25T05:01:42.667Z,72.10
2018-09-25T05:02:13.720Z,72.10
2018-09-25T05:02:44.799Z,72.20
2018-09-25T05:03:15.836Z,72.10
2018-09-25T05:03:46.875Z,72.20
2018-09-25T05:04:17.932Z,72.20
2018-09-25T05:04:48.971Z,72.20
2018-09-25T05:05:20.015Z,72.30
2018-09-25T05:05:51.060Z,72.10
2018-09-25T05:06:22.104Z,72.20
2018-09-25T05:06:53.146Z,72.30
2018-09-25T05:07:24.195Z,72.30
2018-09-25T05:07:55.250Z,72.20
2018-09-25T05:08:26.291Z,72.30
2018-09-25T05:08:57.339Z,72.20
2018-09-25T05:09:28.383Z,72.20
2018-09-25T05:09:59.427Z,72.20
2018-09-25T05:10:30.470Z,72.10
2018-09-25T05:11:01.515Z,72.00
2018-09-25T05:11:32.566Z,72.00
2018-09-25T05:12:03.607Z,72.00
2018-09-25T05:12:34.651Z,72.10
2018-09-25T05:13:05.711Z,72.00
2018-09-25T05:13:36.774Z,72.00
2018-09-25T05:14:07.800Z,72.00
2018-09-25T05:14:38.850Z,72.00
2018-09-25T05:15:09.894Z,72.10
2018-09-25T05:15:40.943Z,72.10
2018-09-25T05:16:11.986Z,72.10
2018-09-25T05:16:43.031Z,72.10
2018-09-25T05:17:14.074Z,72.10
2018-09-25T05:17:45.119Z,72.10
2018-09-25T05:18:16.209Z,72.10
2018-09-25T05:18:47.216Z,72.10
2018-09-25T05:19:18.278Z,71.90
2018-09-25T05:19:49.306Z,71.70
2018-09-25T05:20:20.351Z,71.70
2018-09-25T05:20:51.393Z,71.70
2018-09-25T05:21:22.443Z,72.50
2018-09-25T05:21:53.489Z,71.50
2018-09-25T05:22:24.533Z,71.70
2018-09-25T05:22:55.578Z,71.70
2018-09-25T05:23:26.643Z,71.60
2018-09-25T05:23:57.675Z,71.50
2018-09-25T05:24:28.723Z,71.50
2018-09-25T05:24:59.778Z,71.50
2018-09-25T05:25:30.812Z,71.50
2018-09-25T05:26:01.853Z,71.50
2018-09-25T05:26:32.890Z,71.50
2018-09-25T05:27:03.939Z,71.50
2018-09-25T05:27:34.987Z,71.50
2018-09-25T05:28:06.035Z,71.60
2018-09-25T05:28:37.091Z,71.50
2018-09-25T05:29:08.140Z,71.60
2018-09-25T05:29:39.178Z,71.60
2018-09-25T05:30:10.227Z,71.60
2018-09-25T05:30:41.285Z,71.70
2018-09-25T05:31:12.331Z,71.70
2018-09-25T05:31:43.375Z,71.60
2018-09-25T05:32:14.428Z,71.60
2018-09-25T05:32:45.479Z,71.70
2018-09-25T05:33:16.537Z,71.60
2018-09-25T05:33:47.588Z,71.70
2018-09-25T05:34:18.623Z,71.70
2018-09-25T05:34:49.666Z,71.70
2018-09-25T05:35:20.711Z,71.70
2018-09-25T05:35:51.752Z,71.80
2018-09-25T05:36:22.795Z,71.80
2018-09-25T05:36:53.854Z,71.70
2018-09-25T05:37:24.897Z,71.80
2018-09-25T05:37:55.939Z,71.70
2018-09-25T05:38:27.002Z,71.80
2018-09-25T05:38:58.047Z,71.80
2018-09-25T05:39:29.087Z,71.80
2018-09-25T05:40:00.144Z,71.80
2018-09-25T05:40:31.179Z,71.80
2018-09-25T05:41:02.289Z,71.80
2018-09-25T05:41:33.271Z,71.80
2018-09-25T05:42:04.315Z,71.80
2018-09-25T05:42:35.357Z,71.80
2018-09-25T05:43:06.401Z,71.80
2018-09-25T05:43:37.467Z,71.80
2018-09-25T05:44:08.522Z,71.90
2018-09-25T05:44:39.565Z,72.00
2018-09-25T05:45:10.612Z,72.00
2018-09-25T05:45:41.661Z,72.00
2018-09-25T05:46:12.740Z,71.80
2018-09-25T05:46:43.775Z,71.70
2018-09-25T05:47:14.819Z,71.70
2018-09-25T05:47:45.861Z,71.70
2018-09-25T05:48:16.972Z,71.70
2018-09-25T05:48:48.072Z,71.70
2018-09-25T05:49:19.015Z,71.80
2018-09-25T05:49:50.063Z,71.80
2018-09-25T05:50:21.103Z,71.80
2018-09-25T05:50:52.159Z,71.80
2018-09-25T05:51:23.211Z,71.70
2018-09-25T05:51:54.251Z,71.60
2018-09-25T05:52:25.290Z,71.60
2018-09-25T05:52:56.335Z,72.10
2018-09-25T05:53:27.388Z,71.70
2018-09-25T05:53:58.495Z,71.70
2018-09-25T05:54:29.539Z,71.70
2018-09-25T05:55:00.582Z,71.70
2018-09-25T05:55:31.660Z,71.70
2018-09-25T05:56:02.678Z,71.60
2018-09-25T05:56:33.716Z,71.50
2018-09-25T05:57:04.767Z,71.50
2018-09-25T05:57:35.811Z,71.50
2018-09-25T05:58:06.854Z,71.40
2018-09-25T05:58:37.898Z,71.30
2018-09-25T05:59:08.969Z,71.20
2018-09-25T05:59:39.999Z,71.10
2018-09-25T06:00:11.038Z,71.00
2018-09-25T06:00:42.088Z,70.90
2018-09-25T06:01:13.136Z,71.00
2018-09-25T06:01:44.184Z,71.00
2018-09-25T06:02:15.227Z,71.00
2018-09-25T06:02:46.282Z,71.00
2018-09-25T06:03:17.314Z,71.10
2018-09-25T06:03:48.363Z,71.10
2018-09-25T06:04:19.418Z,71.20
2018-09-25T06:04:50.467Z,71.20
2018-09-25T06:05:21.507Z,71.20
2018-09-25T06:05:52.549Z,71.20
2018-09-25T06:06:23.590Z,71.20
2018-09-25T06:06:54.647Z,71.20
2018-09-25T06:07:25.691Z,71.20
2018-09-25T06:07:56.733Z,71.20
2018-09-25T06:08:27.783Z,71.70
2018-09-25T06:08:58.822Z,71.30
2018-09-25T06:09:29.906Z,71.30
2018-09-25T06:10:00.915Z,71.30
2018-09-25T06:10:31.955Z,71.40
2018-09-25T06:11:02.994Z,71.30
2018-09-25T06:11:34.047Z,72.10
2018-09-25T06:12:05.092Z,71.50
2018-09-25T06:12:36.135Z,71.40
2018-09-25T06:13:07.179Z,71.40
2018-09-25T06:13:38.228Z,71.40
2018-09-25T06:14:09.271Z,71.40
2018-09-25T06:14:40.329Z,71.40
2018-09-25T06:15:11.370Z,71.40
2018-09-25T06:15:42.443Z,71.30
2018-09-25T06:16:13.467Z,71.30
2018-09-25T06:16:44.499Z,71.30
2018-09-25T06:17:15.562Z,71.30
2018-09-25T06:17:46.591Z,71.40
2018-09-25T06:18:17.640Z,71.40
2018-09-25T06:18:48.721Z,71.50
2018-09-25T06:19:19.752Z,71.40
2018-09-25T06:19:50.802Z,71.50
2018-09-25T06:20:21.843Z,71.40
2018-09-25T06:20:52.887Z,72.10
2018-09-25T06:21:23.932Z,71.30
2018-09-25T06:21:54.980Z,71.30
2018-09-25T06:22:26.031Z,71.30
2018-09-25T06:22:57.174Z,71.40
2018-09-25T06:23:28.123Z,71.40
2018-09-25T06:23:59.172Z,71.40
2018-09-25T06:24:30.223Z,71.30
2018-09-25T06:25:01.280Z,71.40
2018-09-25T06:25:32.327Z,71.40
2018-09-25T06:26:03.367Z,71.40
2018-09-25T06:26:34.410Z,71.30
2018-09-25T06:27:05.454Z,71.20
2018-09-25T06:27:36.495Z,71.20
2018-09-25T06:28:07.682Z,71.30
2018-09-25T06:28:38.770Z,71.30
2018-09-25T06:29:09.771Z,71.30
2018-09-25T06:29:40.838Z,71.30
2018-09-25T06:30:11.883Z,71.80
2018-09-25T06:30:42.925Z,71.20
2018-09-25T06:31:13.970Z,71.20
2018-09-25T06:31:45.020Z,71.20
2018-09-25T06:32:16.064Z,71.20
2018-09-25T06:32:47.107Z,72.00
2018-09-25T06:33:18.155Z,71.10
2018-09-25T06:33:49.203Z,71.10
2018-09-25T06:34:20.256Z,71.10
2018-09-25T06:34:51.369Z,71.10
2018-09-25T06:35:22.346Z,71.00
2018-09-25T06:35:53.423Z,71.10
2018-09-25T06:36:24.471Z,71.10
2018-09-25T06:36:55.560Z,71.20
2018-09-25T06:37:26.713Z,71.20
2018-09-25T06:37:57.677Z,71.20
2018-09-25T06:38:28.716Z,71.20
2018-09-25T06:38:59.759Z,71.10
2018-09-25T06:39:30.802Z,71.20
2018-09-25T06:40:01.863Z,71.20